createdAt,value
2018-02-22T00:01:46.857Z,-3.00
2018-02-22T00:04:15.270Z,-3.00
2018-02-22T00:06:43.681Z,-3.20
2018-02-22T00:09:12.536Z,-3.30
2018-02-22T00:11:41.408Z,-3.10
2018-02-22T00:14:10.591Z,-3.10
2018-02-22T00:16:38.991Z,-3.20
2018-02-22T00:19:08.162Z,-3.20
2018-02-22T00:21:36.555Z,-3.20
2018-02-22T00:24:05.728Z,-3.30
2018-02-22T00:26:34.136Z,-3.30
2018-02-22T00:29:03.313Z,-3.40
2018-02-22T00:31:31.742Z,-3.40
2018-02-22T00:34:00.196Z,-3.30
2018-02-22T00:36:28.616Z,-3.30
2018-02-22T00:38:57.028Z,-3.60
2018-02-22T00:41:25.451Z,-3.40
2018-02-22T00:43:53.874Z,-3.30
2018-02-22T00:46:22.283Z,-3.40
2018-02-22T00:48:50.686Z,-3.60
2018-02-22T00:51:19.112Z,-3.70
2018-02-22T00:53:47.510Z,-3.50
2018-02-22T00:56:16.696Z,-3.40
2018-02-22T00:58:45.884Z,-3.50
2018-02-22T01:01:14.279Z,-3.50
2018-02-22T01:03:43.484Z,-3.60
2018-02-22T01:06:12.459Z,-3.70
2018-02-22T01:08:41.312Z,-3.40
2018-02-22T01:11:09.770Z,-3.40
2018-02-22T01:13:38.185Z,-3.40
2018-02-22T01:16:06.595Z,-3.30
2018-02-22T01:18:35.781Z,-3.40
2018-02-22T01:21:04.986Z,-3.50
2018-02-22T01:23:34.185Z,-3.60
2018-02-22T01:26:03.364Z,-3.60
2018-02-22T01:28:32.528Z,-3.70
2018-02-22T01:31:00.960Z,-3.70
2018-02-22T01:33:29.368Z,-3.60
2018-02-22T01:35:57.811Z,-3.60
2018-02-22T01:38:27.004Z,-3.80
2018-02-22T01:40:56.189Z,-3.70
2018-02-22T01:43:25.343Z,-3.60
2018-02-22T01:45:53.770Z,-3.60
2018-02-22T01:48:22.932Z,-3.60
2018-02-22T01:50:51.389Z,-3.60
2018-02-22T01:53:19.835Z,-3.60
2018-02-22T01:55:49.000Z,-3.90
2018-02-22T01:58:17.390Z,-3.90
2018-02-22T02:00:46.600Z,-4.00
2018-02-22T02:03:15.798Z,-4.00
2018-02-22T02:05:44.219Z,-4.00
2018-02-22T02:08:13.727Z,-4.00
2018-02-22T02:10:42.135Z,-3.90
2018-02-22T02:13:10.606Z,-4.20
2018-02-22T02:15:39.025Z,-4.00
2018-02-22T02:18:07.441Z,-4.00
2018-02-22T02:20:35.885Z,-4.00
2018-02-22T02:23:04.283Z,-3.80
2018-02-22T02:25:32.904Z,-4.20
2018-02-22T02:28:06.837Z,-4.00
2018-02-22T02:30:36.029Z,-3.90
2018-02-22T02:33:05.214Z,-4.20
2018-02-22T02:35:33.606Z,-4.20
2018-02-22T02:38:02.798Z,-4.30
2018-02-22T02:40:32.001Z,-4.10
2018-02-22T02:43:00.434Z,-4.10
2018-02-22T02:45:28.854Z,-3.90
2018-02-22T02:47:58.024Z,-4.20
2018-02-22T02:50:26.442Z,-4.10
2018-02-22T02:52:54.855Z,-4.00
2018-02-22T02:55:23.553Z,-3.90
2018-02-22T02:57:51.954Z,-3.90
2018-02-22T03:00:20.364Z,-3.90
2018-02-22T03:02:48.778Z,-4.00
2018-02-22T03:05:17.220Z,-4.00
2018-02-22T03:07:45.618Z,-3.90
2018-02-22T03:10:14.009Z,-4.10
2018-02-22T03:12:43.447Z,-3.90
2018-02-22T03:15:11.853Z,-4.10
2018-02-22T03:17:40.256Z,-4.30
2018-02-22T03:20:08.672Z,-4.40
2018-02-22T03:22:37.082Z,-4.30
2018-02-22T03:25:05.619Z,-4.20
2018-02-22T03:27:34.016Z,-4.10
2018-02-22T03:30:02.475Z,-4.10
2018-02-22T03:32:30.961Z,-4.20
2018-02-22T03:34:59.402Z,-4.10
2018-02-22T03:37:27.886Z,-4.20
2018-02-22T03:39:56.384Z,-4.60
2018-02-22T03:42:24.786Z,-4.60
2018-02-22T03:44:53.217Z,-4.80
2018-02-22T03:47:22.682Z,-4.40
2018-02-22T03:49:51.854Z,-4.30
2018-02-22T03:52:20.277Z,-4.30
2018-02-22T03:54:48.973Z,-4.50
2018-02-22T03:57:18.415Z,-4.60
2018-02-22T03:59:47.104Z,-4.60
2018-02-22T04:02:15.327Z,-4.60
2018-02-22T04:04:44.003Z,-4.60
2018-02-22T04:07:13.194Z,-4.60
2018-02-22T04:09:41.614Z,-4.60
2018-02-22T04:12:10.288Z,-4.50
2018-02-22T04:14:38.708Z,-4.80
2018-02-22T04:17:07.941Z,-5.00
2018-02-22T04:19:37.905Z,-4.90
2018-02-22T04:22:06.320Z,-4.80
2018-02-22T04:24:35.644Z,-4.60
2018-02-22T04:27:04.310Z,-4.60
2018-02-22T04:29:33.008Z,-4.40
2018-02-22T04:32:01.446Z,-4.60
2018-02-22T04:34:30.133Z,-4.80
2018-02-22T04:36:58.827Z,-5.00
2018-02-22T04:39:28.013Z,-4.70
2018-02-22T04:41:56.783Z,-4.70
2018-02-22T04:44:25.209Z,-4.40
2018-02-22T04:46:54.387Z,-4.50
2018-02-22T04:49:22.784Z,-4.50
2018-02-22T04:51:51.192Z,-4.50
2018-02-22T04:54:19.601Z,-4.60
2018-02-22T04:56:48.317Z,-4.70
2018-02-22T04:59:17.501Z,-4.60
2018-02-22T05:01:46.197Z,-4.70
2018-02-22T05:04:15.383Z,-5.10
2018-02-22T05:06:44.112Z,-5.10
2018-02-22T05:09:13.583Z,-4.60
2018-02-22T05:11:42.270Z,-4.70
2018-02-22T05:14:11.471Z,-4.60
2018-02-22T05:16:40.031Z,-4.60
2018-02-22T05:19:08.746Z,-4.80
2018-02-22T05:21:38.116Z,-4.90
2018-02-22T05:24:07.011Z,-4.80
2018-02-22T05:26:37.189Z,-4.90
2018-02-22T05:29:05.654Z,-4.90
2018-02-22T05:31:34.103Z,-4.70
2018-02-22T05:34:02.828Z,-4.70
2018-02-22T05:36:31.516Z,-4.80
2018-02-22T05:39:02.633Z,-4.90
2018-02-22T05:41:31.059Z,-4.90
2018-02-22T05:43:59.733Z,-5.00
2018-02-22T05:46:28.444Z,-5.10
2018-02-22T05:48:57.132Z,-4.90
2018-02-22T05:51:25.821Z,-4.70
2018-02-22T05:53:54.528Z,-4.70
2018-02-22T05:56:23.220Z,-4.80
2018-02-22T05:58:51.932Z,-4.90
2018-02-22T06:01:20.687Z,-4.90
2018-02-22T06:03:49.359Z,-5.00
2018-02-22T06:06:18.573Z,-4.80
2018-02-22T06:08:46.979Z,-4.90
2018-02-22T06:11:15.659Z,-5.00
2018-02-22T06:13:44.095Z,-5.00
2018-02-22T06:16:13.312Z,-5.00
2018-02-22T06:18:41.997Z,-5.00
2018-02-22T06:21:10.734Z,-5.00
2018-02-22T06:23:39.136Z,-5.00
2018-02-22T06:26:09.432Z,-5.00
2018-02-22T06:28:37.843Z,-5.00
2018-02-22T06:31:08.097Z,-4.80
2018-02-22T06:33:37.127Z,-4.80
2018-02-22T06:36:05.613Z,-4.90
2018-02-22T06:38:34.020Z,-5.10
2018-02-22T06:41:03.220Z,-4.70
2018-02-22T06:43:32.379Z,-4.60
2018-02-22T06:46:00.778Z,-4.70
2018-02-22T06:48:29.221Z,-4.60
2018-02-22T06:50:57.636Z,-4.50
2018-02-22T06:53:27.718Z,-4.60
2018-02-22T06:55:56.127Z,-4.60
2018-02-22T06:58:24.519Z,-4.80
2018-02-22T07:00:53.701Z,-4.80
2018-02-22T07:03:22.866Z,-4.80
2018-02-22T07:05:51.278Z,-4.80
2018-02-22T07:08:19.688Z,-4.70
2018-02-22T07:10:48.103Z,-4.70
2018-02-22T07:13:16.508Z,-4.70
2018-02-22T07:15:44.919Z,-4.90
2018-02-22T07:18:13.325Z,-4.90
2018-02-22T07:20:42.040Z,-4.60
2018-02-22T07:23:16.788Z,-4.90
2018-02-22T07:25:39.016Z,-4.80
2018-02-22T07:28:09.563Z,-4.60
2018-02-22T07:30:38.747Z,-4.40
2018-02-22T07:33:07.908Z,-4.30
2018-02-22T07:35:36.959Z,-4.30
2018-02-22T07:38:07.129Z,-4.30
2018-02-22T07:40:35.771Z,-4.40
2018-02-22T07:43:04.167Z,-4.40
2018-02-22T07:45:32.598Z,-4.40
2018-02-22T07:48:01.769Z,-4.20
2018-02-22T07:50:30.237Z,-4.20
2018-02-22T07:52:58.698Z,-4.30
2018-02-22T07:55:27.100Z,-4.20
2018-02-22T07:57:55.501Z,-4.30
2018-02-22T08:00:23.922Z,-4.10
2018-02-22T08:02:52.323Z,-4.10
2018-02-22T08:05:21.488Z,-4.10
2018-02-22T08:07:49.891Z,-4.10
2018-02-22T08:10:18.292Z,-4.10
2018-02-22T08:12:46.688Z,-3.90
2018-02-22T08:15:15.118Z,-3.90
2018-02-22T08:17:43.526Z,-4.10
2018-02-22T08:20:11.938Z,-4.30
2018-02-22T08:22:42.169Z,-4.30
2018-02-22T08:25:10.573Z,-4.30
2018-02-22T08:27:39.006Z,-4.30
2018-02-22T08:30:08.078Z,-4.00
2018-02-22T08:32:37.219Z,-3.80
2018-02-22T08:35:05.713Z,-3.90
2018-02-22T08:37:34.118Z,-4.00
2018-02-22T08:40:02.625Z,-3.90
2018-02-22T08:42:32.226Z,-3.80
2018-02-22T08:45:00.851Z,-3.70
2018-02-22T08:47:29.324Z,-3.70
2018-02-22T08:49:58.583Z,-3.50
2018-02-22T08:52:27.694Z,-3.50
2018-02-22T08:54:56.259Z,-3.70
2018-02-22T08:57:24.865Z,-3.80
2018-02-22T08:59:53.394Z,-3.50
2018-02-22T09:02:21.952Z,-3.60
2018-02-22T09:04:50.442Z,-3.60
2018-02-22T09:07:18.953Z,-3.60
2018-02-22T09:09:47.456Z,-3.60
2018-02-22T09:12:16.019Z,-3.70
2018-02-22T09:14:44.522Z,-3.70
2018-02-22T09:17:13.058Z,-3.60
2018-02-22T09:19:41.557Z,-3.80
2018-02-22T09:22:10.036Z,-3.70
2018-02-22T09:24:38.546Z,-3.40
2018-02-22T09:27:07.089Z,-3.40
2018-02-22T09:29:36.358Z,-3.30
2018-02-22T09:32:05.653Z,-3.40
2018-02-22T09:34:34.848Z,-3.30
2018-02-22T09:37:04.102Z,-3.60
2018-02-22T09:39:33.275Z,-3.40
2018-02-22T09:42:01.760Z,-3.40
2018-02-22T09:44:30.248Z,-3.50
2018-02-22T09:47:00.203Z,-3.50
2018-02-22T09:49:28.733Z,-3.40
2018-02-22T09:51:58.047Z,-3.30
2018-02-22T09:54:27.794Z,-3.30
2018-02-22T09:56:56.301Z,-3.10
2018-02-22T09:59:24.943Z,-3.10
2018-02-22T10:01:54.222Z,-3.10
2018-02-22T10:04:24.393Z,-3.20
2018-02-22T10:06:53.831Z,-3.10
2018-02-22T10:09:22.372Z,-3.20
2018-02-22T10:11:54.504Z,-3.10
2018-02-22T10:14:23.018Z,-3.00
2018-02-22T10:16:51.561Z,-3.00
2018-02-22T10:19:22.196Z,-2.90
2018-02-22T10:21:50.778Z,-2.90
2018-02-22T10:24:19.316Z,-2.70
2018-02-22T10:26:48.705Z,-2.80
2018-02-22T10:29:17.550Z,-2.70
2018-02-22T10:31:45.958Z,-2.60
2018-02-22T10:34:16.003Z,-2.60
2018-02-22T10:36:44.542Z,-2.50
2018-02-22T10:39:13.037Z,-2.70
2018-02-22T10:41:42.973Z,-2.50
2018-02-22T10:44:12.393Z,-2.60
2018-02-22T10:46:41.665Z,-2.60
2018-02-22T10:49:10.159Z,-2.70
2018-02-22T10:51:39.366Z,-2.50
2018-02-22T10:54:07.929Z,-2.30
2018-02-22T10:56:36.528Z,-2.80
2018-02-22T10:59:07.887Z,-2.10
2018-02-22T11:01:41.779Z,-2.10
2018-02-22T11:04:11.145Z,-2.20
2018-02-22T11:06:39.654Z,-2.00
2018-02-22T11:09:08.986Z,-1.80
2018-02-22T11:11:37.486Z,-1.90
2018-02-22T11:14:06.672Z,-2.00
2018-02-22T11:16:36.145Z,-1.70
2018-02-22T11:19:06.667Z,-1.80
2018-02-22T11:21:35.944Z,-1.60
2018-02-22T11:24:05.813Z,-1.60
2018-02-22T11:26:35.499Z,-1.60
2018-02-22T11:29:04.631Z,-1.60
2018-02-22T11:31:33.713Z,0.80
2018-02-22T11:34:02.211Z,-1.60
2018-02-22T11:36:32.567Z,-1.20
2018-02-22T11:39:05.380Z,-1.20
2018-02-22T11:41:35.152Z,-1.40
2018-02-22T11:44:03.461Z,-1.20
2018-02-22T11:49:06.927Z,-1.10
2018-02-22T11:51:36.257Z,-1.20
2018-02-22T11:54:09.084Z,-1.40
2018-02-22T11:56:38.648Z,-1.30
2018-02-22T11:59:07.202Z,-1.20
2018-02-22T12:01:37.539Z,-1.00
2018-02-22T12:04:07.609Z,-0.90
2018-02-22T12:06:36.339Z,-0.90
2018-02-22T12:09:06.150Z,-1.00
2018-02-22T12:11:35.888Z,-1.00
2018-02-22T12:14:04.929Z,-0.90
2018-02-22T12:16:35.127Z,-1.10
2018-02-22T12:19:04.828Z,-1.20
2018-02-22T12:21:33.762Z,-1.10
2018-02-22T12:24:02.278Z,-1.10
2018-02-22T12:26:30.812Z,-1.10
2018-02-22T12:28:59.829Z,-1.20
2018-02-22T12:31:33.001Z,-1.10
2018-02-22T12:34:03.050Z,-0.90
2018-02-22T12:36:32.596Z,-0.90
2018-02-22T12:41:37.855Z,-0.70
2018-02-22T12:44:08.291Z,-0.50
2018-02-22T12:46:36.797Z,-0.60
2018-02-22T12:49:07.070Z,-0.30
2018-02-22T12:51:38.415Z,-0.40
2018-02-22T12:54:10.871Z,-0.40
2018-02-22T12:56:39.939Z,-0.50
2018-02-22T12:59:08.458Z,-0.40
2018-02-22T13:01:37.860Z,-0.40
2018-02-22T13:04:07.301Z,-0.40
2018-02-22T13:06:36.610Z,-0.40
2018-02-22T13:09:05.727Z,-0.30
2018-02-22T13:11:38.798Z,-0.10
2018-02-22T13:14:08.582Z,-0.30
2018-02-22T13:16:37.129Z,-0.30
2018-02-22T13:19:07.204Z,-0.30
2018-02-22T13:21:36.572Z,-0.20
2018-02-22T13:24:05.324Z,-0.10
2018-02-22T13:26:35.824Z,-0.10
2018-02-22T13:29:05.347Z,-0.10
2018-02-22T13:31:37.115Z,-0.10
2018-02-22T13:34:16.739Z,-0.20
2018-02-22T13:36:46.036Z,-0.10
2018-02-22T13:39:14.532Z,-0.10
2018-02-22T13:41:47.940Z,0.10
2018-02-22T13:44:28.040Z,-0.10
2018-02-22T13:46:56.524Z,0.00
2018-02-22T13:49:38.883Z,0.00
2018-02-22T13:52:07.377Z,0.10
2018-02-22T13:54:37.014Z,0.10
2018-02-22T13:57:12.509Z,0.10
2018-02-22T13:59:42.138Z,0.10
2018-02-22T14:02:27.614Z,0.30
2018-02-22T14:04:56.535Z,0.30
2018-02-22T14:07:25.122Z,0.30
2018-02-22T14:09:58.360Z,0.20
2018-02-22T14:12:27.169Z,0.20
2018-02-22T14:17:35.830Z,0.30
2018-02-22T14:20:07.914Z,0.40
2018-02-22T14:22:37.848Z,0.40
2018-02-22T14:27:44.500Z,0.20
2018-02-22T14:30:14.888Z,0.20
2018-02-22T14:32:54.879Z,0.20
2018-02-22T14:35:25.392Z,0.30
2018-02-22T14:38:03.489Z,0.40
2018-02-22T14:40:32.830Z,0.50
2018-02-22T14:43:01.471Z,0.50
2018-02-22T14:45:32.904Z,0.50
2018-02-22T14:48:05.847Z,0.50
2018-02-22T14:50:35.902Z,0.60
2018-02-22T14:53:05.745Z,0.50
2018-02-22T14:55:38.150Z,0.40
2018-02-22T14:58:14.592Z,0.40
2018-02-22T15:00:49.382Z,0.20
2018-02-22T15:03:19.909Z,0.30
2018-02-22T15:05:51.952Z,0.30
2018-02-22T15:08:21.281Z,0.30
2018-02-22T15:10:50.458Z,0.20
2018-02-22T15:13:19.877Z,0.30
2018-02-22T15:15:49.165Z,0.40
2018-02-22T15:18:20.496Z,0.30
2018-02-22T15:20:49.821Z,0.30
2018-02-22T15:25:52.322Z,0.30
2018-02-22T15:28:26.226Z,0.30
2018-02-22T15:30:54.698Z,0.20
2018-02-22T15:33:26.468Z,0.20
2018-02-22T15:35:57.339Z,0.10
2018-02-22T15:38:26.779Z,0.10
2018-02-22T15:40:56.068Z,-0.10
2018-02-22T15:43:24.629Z,-0.10
2018-02-22T15:45:53.233Z,-0.10
2018-02-22T15:48:21.717Z,-0.10
2018-02-22T15:50:51.034Z,-0.20
2018-02-22T15:53:28.540Z,-0.20
2018-02-22T16:02:08.358Z,-0.20
2018-02-22T16:04:37.034Z,-0.40
2018-02-22T16:07:05.497Z,-0.40
2018-02-22T16:09:34.766Z,-0.50
2018-02-22T16:12:03.173Z,-0.50
2018-02-22T16:14:32.795Z,-0.60
2018-02-22T16:17:01.204Z,-0.60
2018-02-22T16:19:29.608Z,-0.50
2018-02-22T16:21:58.058Z,-0.60
2018-02-22T16:24:26.478Z,-0.70
2018-02-22T16:26:54.910Z,-0.80
2018-02-22T16:29:23.325Z,-0.90
2018-02-22T16:31:51.794Z,-1.00
2018-02-22T16:34:20.204Z,-0.80
2018-02-22T16:36:49.383Z,-0.70
2018-02-22T16:39:17.815Z,-0.70
2018-02-22T16:41:46.212Z,-0.80
2018-02-22T16:44:15.397Z,-0.80
2018-02-22T16:46:43.804Z,-0.80
2018-02-22T16:49:12.228Z,-0.90
2018-02-22T16:51:40.649Z,-1.10
2018-02-22T16:54:09.082Z,-1.20
2018-02-22T16:56:38.288Z,-1.10
2018-02-22T16:59:06.688Z,-1.30
2018-02-22T17:01:35.256Z,-1.40
2018-02-22T17:04:03.686Z,-1.30
2018-02-22T17:06:32.858Z,-1.20
2018-02-22T17:09:01.261Z,-1.20
2018-02-22T17:11:30.454Z,-1.50
2018-02-22T17:13:59.619Z,-1.40
2018-02-22T17:16:28.052Z,-1.40
2018-02-22T17:18:56.456Z,-1.40
2018-02-22T17:21:24.862Z,-1.30
2018-02-22T17:23:53.310Z,-1.50
2018-02-22T17:26:27.234Z,-1.50
2018-02-22T17:29:02.030Z,-1.50
2018-02-22T17:31:36.247Z,-1.60
2018-02-22T17:34:05.961Z,-1.90
2018-02-22T17:36:39.840Z,-2.00
2018-02-22T17:39:08.833Z,-2.00
2018-02-22T17:41:41.417Z,-1.90
2018-02-22T17:44:09.637Z,-2.00
2018-02-22T17:46:38.376Z,-2.20
2018-02-22T17:49:06.779Z,-2.20
2018-02-22T17:51:35.249Z,-2.10
2018-02-22T17:54:03.658Z,-2.10
2018-02-22T17:56:31.878Z,-2.00
2018-02-22T17:59:00.862Z,-2.00
2018-02-22T18:01:29.861Z,-1.90
2018-02-22T18:03:58.133Z,-1.90
2018-02-22T18:06:27.108Z,-1.90
2018-02-22T18:08:55.328Z,-1.90
2018-02-22T18:11:23.546Z,-1.90
2018-02-22T18:13:51.985Z,-2.00
2018-02-22T18:16:20.410Z,-1.80
2018-02-22T18:18:48.838Z,-2.00
2018-02-22T18:21:17.241Z,-2.20
2018-02-22T18:23:45.667Z,-2.00
2018-02-22T18:26:14.073Z,-1.90
2018-02-22T18:28:42.344Z,-2.20
2018-02-22T18:31:10.750Z,-2.00
2018-02-22T18:33:38.960Z,-2.10
2018-02-22T18:36:07.943Z,-2.00
2018-02-22T18:38:43.254Z,-2.00
2018-02-22T18:41:11.490Z,-2.00
2018-02-22T18:43:40.824Z,-2.00
2018-02-22T18:46:09.228Z,-2.10
2018-02-22T18:48:38.229Z,-2.10
2018-02-22T18:51:08.225Z,-2.10
2018-02-22T18:53:37.395Z,-2.10
2018-02-22T18:56:06.799Z,-2.10
2018-02-22T18:58:35.264Z,-2.00
2018-02-22T19:01:03.664Z,-2.00
2018-02-22T19:03:32.080Z,-2.00
2018-02-22T19:06:01.253Z,-1.90
2018-02-22T19:08:29.698Z,-1.90
2018-02-22T19:10:58.119Z,-2.00
2018-02-22T19:13:26.534Z,-2.00
2018-02-22T19:15:54.974Z,-1.90
2018-02-22T19:18:23.395Z,-2.00
2018-02-22T19:20:51.809Z,-2.10
2018-02-22T19:23:20.226Z,-2.10
2018-02-22T19:25:49.206Z,-2.00
2018-02-22T19:28:18.389Z,-2.00
2018-02-22T19:30:46.798Z,-2.00
2018-02-22T19:33:15.224Z,-2.10
2018-02-22T19:35:43.626Z,-2.00
2018-02-22T19:38:12.792Z,-1.80
2018-02-22T19:40:41.208Z,-1.80
2018-02-22T19:43:10.358Z,-2.10
2018-02-22T19:45:38.772Z,-2.10
2018-02-22T19:48:07.871Z,-2.10
2018-02-22T19:50:36.880Z,-2.20
2018-02-22T19:53:06.753Z,-2.10
2018-02-22T19:55:35.374Z,-2.10
2018-02-22T19:58:04.549Z,-2.10
2018-02-22T20:00:33.708Z,-2.10
2018-02-22T20:03:02.120Z,-2.10
2018-02-22T20:05:30.548Z,-1.90
2018-02-22T20:07:58.966Z,-2.10
2018-02-22T20:10:27.375Z,-2.10
2018-02-22T20:12:56.543Z,-2.00
2018-02-22T20:15:24.952Z,-2.00
2018-02-22T20:17:54.107Z,-2.20
2018-02-22T20:20:22.758Z,-2.30
2018-02-22T20:22:51.152Z,-2.30
2018-02-22T20:25:19.218Z,-2.40
2018-02-22T20:27:47.617Z,-2.30
2018-02-22T20:30:16.042Z,-2.30
2018-02-22T20:32:44.454Z,-2.40
2018-02-22T20:35:12.878Z,-2.20
2018-02-22T20:37:42.083Z,-2.20
2018-02-22T20:40:10.654Z,-2.30
2018-02-22T20:42:39.664Z,-2.20
2018-02-22T20:45:08.893Z,-2.20
2018-02-22T20:47:37.961Z,-2.10
2018-02-22T20:50:06.717Z,-2.30
2018-02-22T20:55:37.328Z,-2.30
2018-02-22T20:58:06.205Z,-2.30
2018-02-22T21:00:34.616Z,-2.30
2018-02-22T21:03:02.831Z,-2.40
2018-02-22T21:05:31.232Z,-2.60
2018-02-22T21:07:59.624Z,-2.60
2018-02-22T21:10:28.027Z,-2.50
2018-02-22T21:12:56.464Z,-2.60
2018-02-22T21:15:24.857Z,-2.50
2018-02-22T21:17:54.032Z,-2.50
2018-02-22T21:20:22.442Z,-2.50
2018-02-22T21:22:50.847Z,-2.40
2018-02-22T21:25:20.004Z,-2.50
2018-02-22T21:27:48.409Z,-2.60
2018-02-22T21:30:16.162Z,-2.50
2018-02-22T21:32:44.575Z,-2.70
2018-02-22T21:35:12.970Z,-2.50
2018-02-22T21:37:41.384Z,-2.50
2018-02-22T21:40:09.785Z,-2.60
2018-02-22T21:42:38.501Z,-2.60
2018-02-22T21:45:06.932Z,-2.60
2018-02-22T21:47:35.414Z,-2.60
2018-02-22T21:50:03.840Z,-2.50
2018-02-22T21:52:32.051Z,-2.40
2018-02-22T21:55:00.455Z,-2.30
2018-02-22T21:57:28.876Z,-2.50
2018-02-22T21:59:57.268Z,-2.50
2018-02-22T22:02:25.672Z,-2.60
2018-02-22T22:04:54.064Z,-2.70
2018-02-22T22:07:22.478Z,-2.70
2018-02-22T22:09:50.879Z,-2.60
2018-02-22T22:12:19.303Z,-2.50
2018-02-22T22:14:47.780Z,-2.50
2018-02-22T22:17:16.232Z,-2.70
2018-02-22T22:19:45.566Z,-2.70
2018-02-22T22:22:13.976Z,-2.70
2018-02-22T22:24:42.103Z,-2.80
2018-02-22T22:27:10.511Z,-2.80
2018-02-22T22:29:39.670Z,-2.70
2018-02-22T22:32:08.970Z,-2.70
2018-02-22T22:34:38.176Z,-2.60
2018-02-22T22:37:06.588Z,-2.60
2018-02-22T22:39:35.046Z,-2.90
2018-02-22T22:42:04.228Z,-2.70
2018-02-22T22:44:32.636Z,-2.70
2018-02-22T22:47:01.814Z,-2.50
2018-02-22T22:49:30.991Z,-2.50
2018-02-22T22:51:59.388Z,-2.60
2018-02-22T22:54:28.563Z,-2.60
2018-02-22T22:56:56.954Z,-2.70
2018-02-22T22:59:25.455Z,-2.80
2018-02-22T23:01:54.623Z,-2.70
2018-02-22T23:04:23.032Z,-2.70
2018-02-22T23:06:52.027Z,-2.70
2018-02-22T23:09:20.226Z,-2.80
2018-02-22T23:11:48.453Z,-2.80
2018-02-22T23:14:17.615Z,-2.70
2018-02-22T23:16:46.040Z,-2.70
2018-02-22T23:19:15.201Z,-2.80
2018-02-22T23:21:43.596Z,-2.80
2018-02-22T23:24:12.020Z,-2.70
2018-02-22T23:26:40.411Z,-2.70
2018-02-22T23:29:08.825Z,-2.80
2018-02-22T23:31:37.899Z,-2.80
2018-02-22T23:34:06.630Z,-2.90
2018-02-22T23:36:35.046Z,-3.00
2018-02-22T23:39:02.931Z,-3.20
2018-02-22T23:44:30.867Z,-2.90
2018-02-22T23:46:59.124Z,-3.00
2018-02-22T23:49:28.126Z,-2.90
2018-02-22T23:51:56.348Z,-2.90
2018-02-22T23:54:24.559Z,-3.00
2018-02-22T23:56:53.742Z,-2.80
2018-02-22T23:59:21.984Z,-2.80
